EDT,Max TemperatureF,Mean TemperatureF,Min TemperatureF,Max Dew PointF,MeanDew PointF,Min DewpointF,Max Humidity, Mean Humidity, Min Humidity, Max Sea Level PressureIn, Mean Sea Level PressureIn, Min Sea Level PressureIn, Max VisibilityMiles, Mean VisibilityMiles, Min VisibilityMiles, Max Wind SpeedMPH, Mean Wind SpeedMPH, Max Gust SpeedMPH,PrecipitationIn, CloudCover, Events, WindDirDegrees
2011-10-1,64,56,48,57,54,45,100,91,73,29.77,29.68,29.61,10,9,3,12,2,20,0.00,7,Rain,5
2011-10-2,62,54,46,50,46,45,100,85,55,29.92,29.79,29.72,20,10,3,12,5,20,0.00,6,Rain-Thunderstorm,77
2011-10-3,57,50,44,50,46,41,100,89,55,30.06,29.99,29.91,10,10,4,7,1,,0.01,7,,167
2011-10-4,66,56,46,52,48,45,100,84,56,30.06,30.03,30.00,10,9,7,14,2,20,0.00,5,Rain,318
2011-10-5,71,60,48,52,47,37,82,67,33,30.30,30.09,29.95,10,10,10,14,7,33,0.00,1,,331
2011-10-6,69,53,37,45,39,32,100,82,28,30.39,30.33,30.27,20,12,2,8,1,16,0.00,1,,323
2011-10-7,44,40,35,43,39,36,100,99,93,30.50,30.42,30.35,10,9,1,8,0,,0.00,1,,55
2011-10-8,78,58,39,55,45,39,100,85,32,30.52,30.46,30.40,15,10,0,9,1,,0.00,0,Fog,269
2011-10-9,84,63,42,63,49,43,100,87,29,30.45,30.39,30.30,15,7,0,7,0,,0.00,0,Fog,284
2011-10-10,82,63,44,61,51,45,100,87,34,30.30,30.24,30.16,10,6,0,7,0,,0.00,5,Fog,296
2011-10-11,75,62,50,59,53,50,100,87,41,30.22,30.17,30.15,10,8,0,8,1,,0.00,6,Fog,93
2011-10-12,59,56,53,55,54,52,100,91,77,30.17,30.11,29.94,10,9,3,14,3,13,0.00,7,Rain,51
2011-10-13,64,58,51,64,57,36,100,96,54,29.93,29.82,29.66,10,4,1,8,5,,0.00,8,Rain-Thunderstorm,39
2011-10-14,73,64,55,68,62,48,100,91,68,29.65,29.53,29.35,10,6,1,16,4,30,0.00,7,Rain-Thunderstorm,191
2011-10-15,64,55,46,48,44,36,93,73,37,29.79,29.64,29.55,15,11,10,25,7,36,0.00,4,,233
2011-10-16,68,57,46,46,41,36,100,59,35,29.91,29.81,29.66,10,10,10,18,6,26,0.01,3,,219
2011-10-17,66,54,42,52,45,32,93,68,28,29.81,29.72,29.65,10,10,5,17,5,28,0.00,2,Rain,267
2011-10-18,69,56,42,50,43,34,100,83,28,29.90,29.84,29.80,10,10,10,10,1,,0.00,4,,232
2011-10-19,60,54,48,61,54,48,100,91,77,30.01,29.72,29.39,10,6,1,17,4,21,0.00,8,Rain,46
2011-10-20,68,59,50,66,55,41,100,83,48,29.71,29.44,29.31,15,8,2,18,6,32,0.01,4,Rain,217
2011-10-21,55,50,44,45,41,39,100,69,54,30.03,29.86,29.71,15,10,7,14,7,24,0.00,6,,245
2011-10-22,57,48,39,45,41,39,100,83,54,30.11,30.06,30.02,10,10,7,14,3,18,0.00,3,,255
2011-10-23,60,50,39,46,43,34,100,86,39,30.16,30.12,30.07,15,10,2,10,1,,0.00,4,,232
2011-10-24,60,48,37,52,43,36,100,92,63,30.14,30.08,29.97,15,7,1,10,1,,0.00,7,,210
2011-10-25,62,50,39,50,40,30,100,78,30,30.08,30.02,29.98,10,9,2,20,3,31,0.00,0,,294
2011-10-26,60,50,39,52,43,37,100,90,59,30.06,29.92,29.74,10,10,10,13,1,,0.00,6,,230
2011-10-27,55,47,39,54,47,36,100,95,87,29.97,29.73,29.63,10,6,1,13,2,22,0.00,8,Rain,23
2011-10-28,50,41,32,37,30,23,87,71,35,30.25,30.15,29.98,15,10,10,12,6,,0.00,5,,355
2011-10-29,41,36,32,36,33,32,100,85,70,30.24,30.10,29.87,10,7,0,15,4,26,0.00,8,Rain-Snow,28
2011-10-30,48,39,28,32,30,27,100,82,43,30.34,30.11,29.94,10,10,7,15,7,23,0.00,0,,312
2011-10-31,50,37,24,37,30,25,100,91,43,30.42,30.37,30.32,10,8,2,6,0,,0.00,5,,150